Observations for PANTELLERIA IT-AFB, Italy (LICG)

LICG 260450Z VRB01KT CAVOK 22/22 Q1017  
LICG 252150Z 06002KT 030V090 CAVOK 22/21 Q1017  
LICG 252050Z VRB01KT CAVOK 22/21 Q1017  
LICG 251950Z 16004KT CAVOK 23/22 Q1017  
LICG 251850Z 09003KT CAVOK 24/22 Q1016  
LICG 251750Z 04004KT CAVOK 26/23 Q1016  
LICG 251650Z 36004KT 330V050 CAVOK 27/23 Q1016  
LICG 251550Z 34004KT 280V040 CAVOK 28/23 Q1016  
LICG 251450Z 35004KT 300V050 CAVOK 28/23 Q1016  
LICG 251350Z 02005KT 340V070 9999 FEW030 28/22 Q1016
LICG 251250Z 01004KT 300V070 9999 FEW030 28/23 Q1017
LICG 251150Z 36007KT 9999 FEW025 29/22 Q1017
LICG 251050Z 01006KT CAVOK 30/22 Q1017  
LICG 250950Z 03004KT CAVOK 29/23 Q1018  
LICG 250850Z 03007KT CAVOK 30/21 Q1018  
LICG 250750Z 16004KT CAVOK 27/20 Q1017  
LICG 250650Z 19005KT CAVOK 26/22 Q1017  
LICG 250550Z 17004KT CAVOK 25/21 Q1017  
LICG 250450Z 15004KT CAVOK 22/19 Q1016